Time;durP1;ratioP1;P1;durP2;ratioP2;P2;SDS_P1;SDS_P2;PMS_P1;PMS_P2;Temp;Humidity;BMP_temperature;BMP_pressure;BME280_temperature;BME280_humidity;BME280_pressure;Samples;Min_cycle;Max_cycle;Signal;HPM_P1;HPM_P2
2022/03/12 00:00:26;;;;;;;9.85;4.63;;;3.10;38.40;;;;;;5049049;28;20148;-80
2022/03/12 00:02:52;;;;;;;14.00;5.45;;;3.20;37.90;;;;;;5038583;28;20544;-80
2022/03/12 00:05:18;;;;;;;9.45;4.97;;;3.20;38.00;;;;;;5046881;28;20140;-80
2022/03/12 00:07:43;;;;;;;14.40;5.65;;;3.10;38.30;;;;;;5036742;28;20053;-80
2022/03/12 00:10:13;;;;;;;11.65;4.80;;;3.00;38.60;;;;;;5042318;28;20032;-81
2022/03/12 00:12:42;;;;;;;9.88;4.88;;;3.00;38.40;;;;;;5042726;28;20021;-80
2022/03/12 00:15:11;;;;;;;9.93;5.18;;;3.00;38.40;;;;;;5041138;28;20029;-80
2022/03/12 00:17:39;;;;;;;8.23;4.65;;;3.10;37.90;;;;;;5070238;28;20392;-80
2022/03/12 00:20:09;;;;;;;9.88;5.03;;;3.10;38.00;;;;;;5052571;28;20048;-81
2022/03/12 00:22:37;;;;;;;9.32;4.82;;;3.00;38.00;;;;;;5033503;28;20396;-80
2022/03/12 00:25:11;;;;;;;8.88;5.05;;;3.10;38.10;;;;;;5043663;28;20089;-80
2022/03/12 00:27:39;;;;;;;11.07;5.45;;;3.00;37.80;;;;;;5041075;28;20495;-80
2022/03/12 00:30:06;;;;;;;9.60;5.05;;;3.00;38.10;;;;;;5036598;28;20013;-80
2022/03/12 00:32:35;;;;;;;9.80;4.65;;;3.00;37.90;;;;;;5048899;28;20495;-80
2022/03/12 00:35:01;;;;;;;9.88;5.00;;;3.00;38.00;;;;;;5067462;28;20037;-80
2022/03/12 00:37:27;;;;;;;12.18;5.05;;;2.90;38.10;;;;;;5039502;28;20032;-80
2022/03/12 00:39:52;;;;;;;8.93;4.60;;;3.00;37.90;;;;;;5050447;28;20083;-81
2022/03/12 00:42:18;;;;;;;9.57;4.38;;;2.90;38.00;;;;;;5046503;28;20028;-80
2022/03/12 00:44:43;;;;;;;9.38;4.90;;;2.90;37.70;;;;;;5052654;28;20075;-80
2022/03/12 00:47:09;;;;;;;8.68;4.93;;;2.90;38.20;;;;;;5048336;28;20029;-80
2022/03/12 00:49:34;;;;;;;8.07;4.32;;;2.90;37.50;;;;;;5046401;28;20036;-80
2022/03/12 00:52:00;;;;;;;10.65;4.63;;;3.00;37.40;;;;;;5048841;28;20025;-80
2022/03/12 00:54:25;;;;;;;7.82;4.55;;;3.00;37.50;;;;;;5046739;28;20049;-81
2022/03/12 00:56:51;;;;;;;11.48;4.82;;;2.90;37.90;;;;;;5046695;28;20040;-84
2022/03/12 00:59:17;;;;;;;10.80;4.47;;;2.80;37.80;;;;;;5049564;28;20171;-81
2022/03/12 01:01:42;;;;;;;12.10;4.55;;;2.80;38.00;;;;;;5042879;28;20392;-81
2022/03/12 01:04:08;;;;;;;9.50;4.53;;;2.80;38.10;;;;;;5036914;28;20488;-81
2022/03/12 01:06:34;;;;;;;9.05;4.75;;;2.70;38.60;;;;;;5043888;28;20032;-81
2022/03/12 01:09:00;;;;;;;7.53;4.65;;;2.60;38.40;;;;;;5050516;28;20032;-81
2022/03/12 01:11:26;;;;;;;8.63;4.40;;;2.60;38.60;;;;;;5053907;28;20021;-83
2022/03/12 01:13:52;;;;;;;11.10;4.75;;;2.60;38.40;;;;;;5051536;28;20089;-82
2022/03/12 01:16:18;;;;;;;11.82;5.20;;;2.60;38.50;;;;;;5049533;28;20041;-82
2022/03/12 01:18:44;;;;;;;8.13;5.10;;;2.60;38.50;;;;;;5054465;28;20086;-81
2022/03/12 01:21:16;;;;;;;10.00;4.50;;;2.60;38.60;;;;;;5050257;28;20038;-82
2022/03/12 01:23:42;;;;;;;7.90;4.30;;;2.60;38.40;;;;;;5073159;28;20053;-82
2022/03/12 01:26:10;;;;;;;10.10;4.85;;;2.50;38.70;;;;;;5036570;28;20080;-82
2022/03/12 01:28:35;;;;;;;9.48;5.18;;;2.50;38.70;;;;;;5047328;28;20052;-81
2022/03/12 01:31:01;;;;;;;9.88;4.90;;;2.50;38.30;;;;;;5044014;28;20579;-81
2022/03/12 01:33:27;;;;;;;8.25;4.68;;;2.50;38.50;;;;;;5053817;28;20021;-81
2022/03/12 01:35:54;;;;;;;9.77;4.90;;;2.40;38.60;;;;;;5053432;28;20543;-81
2022/03/12 01:38:28;;;;;;;6.70;3.80;;;2.40;38.50;;;;;;5048621;28;20025;-81
2022/03/12 01:40:54;;;;;;;8.45;4.78;;;2.30;38.80;;;;;;5044912;28;20443;-81
2022/03/12 01:43:19;;;;;;;11.48;4.30;;;2.40;38.50;;;;;;5052407;28;20055;-82
2022/03/12 01:45:44;;;;;;;11.18;4.68;;;2.30;38.60;;;;;;5043143;28;20040;-82
2022/03/12 01:48:10;;;;;;;8.65;4.47;;;2.30;38.70;;;;;;5066623;28;20063;-82
2022/03/12 01:50:37;;;;;;;7.88;4.55;;;2.30;38.70;;;;;;5040533;28;20038;-82
2022/03/12 01:53:07;;;;;;;7.95;4.38;;;2.20;38.90;;;;;;5054474;28;20431;-82
2022/03/12 01:55:33;;;;;;;10.70;4.90;;;2.20;39.00;;;;;;5040007;28;20072;-82
2022/03/12 01:58:01;;;;;;;13.35;4.72;;;2.10;39.10;;;;;;5072378;28;20115;-81
2022/03/12 02:00:28;;;;;;;10.27;4.18;;;2.10;39.50;;;;;;5052958;28;20412;-82
2022/03/12 02:02:54;;;;;;;8.63;4.70;;;2.10;39.70;;;;;;5055949;28;20088;-84
2022/03/12 02:05:23;;;;;;;10.50;4.88;;;2.00;39.60;;;;;;5055015;28;20036;-81
2022/03/12 02:07:48;;;;;;;8.10;4.55;;;2.00;39.60;;;;;;5044323;28;20128;-81
2022/03/12 02:10:18;;;;;;;7.97;4.35;;;2.00;39.70;;;;;;5050359;28;20110;-81
2022/03/12 02:12:43;;;;;;;7.47;4.05;;;2.00;39.80;;;;;;5071897;28;20037;-82
2022/03/12 02:15:09;;;;;;;9.00;4.50;;;1.90;39.90;;;;;;5047169;28;20041;-81
2022/03/12 02:17:38;;;;;;;8.55;4.78;;;1.90;39.80;;;;;;5044513;28;20102;-81
2022/03/12 02:20:05;;;;;;;10.18;4.75;;;2.00;39.60;;;;;;5050636;28;20036;-81
2022/03/12 02:22:31;;;;;;;8.30;4.15;;;1.80;40.10;;;;;;5046552;28;20025;-81
2022/03/12 02:24:57;;;;;;;10.02;4.93;;;1.80;39.90;;;;;;5045142;28;20056;-81
2022/03/12 02:27:26;;;;;;;10.15;4.97;;;1.80;39.90;;;;;;5045153;28;20063;-81
2022/03/12 02:29:59;;;;;;;9.15;4.55;;;1.70;40.20;;;;;;5048126;28;20104;-81
2022/03/12 02:32:25;;;;;;;10.25;4.57;;;1.60;40.50;;;;;;5055831;28;20388;-81
2022/03/12 02:34:51;;;;;;;8.63;5.30;;;1.70;40.20;;;;;;5048423;28;20041;-81
2022/03/12 02:37:33;;;;;;;6.80;3.65;;;1.70;40.70;;;;;;5052396;28;20035;-81
2022/03/12 02:40:11;;;;;;;8.40;4.45;;;1.60;40.80;;;;;;5042545;28;20112;-81
2022/03/12 02:42:40;;;;;;;8.85;4.50;;;1.60;40.90;;;;;;5041753;28;20381;-81
2022/03/12 02:45:07;;;;;;;8.77;4.57;;;1.50;41.10;;;;;;5051883;28;20039;-82
2022/03/12 02:47:34;;;;;;;9.88;4.72;;;1.60;40.90;;;;;;5036794;28;20017;-81
2022/03/12 02:50:06;;;;;;;11.60;5.03;;;1.50;41.10;;;;;;5045026;28;20025;-81
2022/03/12 02:52:38;;;;;;;7.22;3.63;;;1.50;41.10;;;;;;5045408;28;20120;-81
2022/03/12 02:55:03;;;;;;;10.55;4.97;;;1.40;41.50;;;;;;5054198;28;20013;-81
2022/03/12 02:57:30;;;;;;;9.60;4.53;;;1.40;41.30;;;;;;5048751;28;20033;-81
2022/03/12 03:00:03;;;;;;;10.48;5.00;;;1.30;41.40;;;;;;5041285;28;20043;-81
2022/03/12 03:02:39;;;;;;;10.02;4.80;;;1.30;41.80;;;;;;5055005;28;20395;-82
2022/03/12 03:08:04;;;;;;;8.35;4.38;;;1.40;41.20;;;;;;5036166;28;20037;-82
2022/03/12 03:10:43;;;;;;;9.90;4.68;;;1.40;41.20;;;;;;5055247;28;20032;-82
2022/03/12 03:13:34;;;;;;;12.57;4.78;;;1.30;41.10;;;;;;5053927;28;20391;-82
2022/03/12 03:16:01;;;;;;;;;;;1.40;40.90;;;;;;5052094;28;20471;-81
2022/03/12 03:18:31;;;;;;;10.25;4.70;;;1.30;41.40;;;;;;5052743;28;19912;-81
2022/03/12 03:20:58;;;;;;;8.90;4.38;;;1.30;41.10;;;;;;5050989;28;20431;-81
2022/03/12 03:23:28;;;;;;;8.85;4.22;;;1.30;41.40;;;;;;5054359;28;20041;-81
2022/03/12 03:25:54;;;;;;;8.02;4.70;;;1.20;41.90;;;;;;5042152;28;20504;-81
2022/03/12 03:28:20;;;;;;;10.48;4.90;;;1.10;41.80;;;;;;5042192;28;20029;-81
2022/03/12 03:30:46;;;;;;;9.05;4.80;;;1.10;41.50;;;;;;5045822;28;20021;-81
2022/03/12 03:33:14;;;;;;;9.27;4.53;;;1.20;41.50;;;;;;5049710;28;20553;-82
2022/03/12 03:35:40;;;;;;;9.52;4.32;;;1.20;41.40;;;;;;5045577;28;20053;-81
2022/03/12 03:38:06;;;;;;;10.38;4.80;;;1.10;41.60;;;;;;5045128;28;20037;-82
2022/03/12 03:40:32;;;;;;;9.98;5.10;;;1.10;41.70;;;;;;5049867;28;20617;-82
2022/03/12 03:42:57;;;;;;;8.68;4.43;;;1.10;41.50;;;;;;5056511;28;20025;-81
2022/03/12 03:45:27;;;;;;;7.75;4.43;;;1.10;41.40;;;;;;5057859;28;20056;-81
2022/03/12 03:47:55;;;;;;;8.73;4.85;;;1.10;41.30;;;;;;5045599;28;20029;-82
2022/03/12 03:50:22;;;;;;;10.43;4.47;;;1.00;41.60;;;;;;5044393;28;20074;-81
2022/03/12 03:52:47;;;;;;;9.55;4.53;;;0.90;41.90;;;;;;5036267;28;20021;-81
2022/03/12 03:55:13;;;;;;;8.52;4.53;;;1.00;41.80;;;;;;5035197;28;20120;-81
2022/03/12 03:57:39;;;;;;;8.52;4.63;;;0.90;41.80;;;;;;5045704;28;20026;-81
2022/03/12 04:00:05;;;;;;;10.60;4.75;;;1.00;41.60;;;;;;5045265;28;20017;-81
2022/03/12 04:02:30;;;;;;;10.50;4.55;;;1.00;41.40;;;;;;5039233;28;20017;-82
2022/03/12 04:04:56;;;;;;;8.90;4.57;;;1.00;41.20;;;;;;5054238;28;20102;-82
2022/03/12 04:07:21;;;;;;;8.32;4.28;;;1.10;40.40;;;;;;5039134;28;20029;-81
2022/03/12 04:09:48;;;;;;;9.10;4.53;;;1.00;41.10;;;;;;5051092;28;20035;-81
2022/03/12 04:12:14;;;;;;;9.50;4.65;;;0.90;41.30;;;;;;5044132;28;20033;-81
2022/03/12 04:14:39;;;;;;;12.30;4.80;;;0.90;41.60;;;;;;5041876;28;20037;-82
2022/03/12 04:17:05;;;;;;;9.40;5.13;;;0.80;41.50;;;;;;5070125;28;20040;-82
2022/03/12 04:19:33;;;;;;;10.02;4.55;;;0.70;42.00;;;;;;5049952;28;20030;-81
2022/03/12 04:21:58;;;;;;;11.48;4.80;;;0.70;42.10;;;;;;5043068;28;20079;-81
2022/03/12 04:24:25;;;;;;;8.98;4.72;;;0.60;42.20;;;;;;5039622;28;20136;-81
2022/03/12 04:26:51;;;;;;;9.40;4.75;;;0.60;42.00;;;;;;5038862;28;20091;-81
2022/03/12 04:29:18;;;;;;;9.05;4.47;;;0.60;42.10;;;;;;5052003;28;20025;-81
2022/03/12 04:31:46;;;;;;;8.60;4.72;;;0.60;42.00;;;;;;5048529;28;20029;-82
2022/03/12 04:34:13;;;;;;;9.50;4.72;;;0.60;42.30;;;;;;5044291;28;20033;-81
2022/03/12 04:36:41;;;;;;;9.75;4.53;;;0.60;42.10;;;;;;5039174;28;20040;-81
2022/03/12 04:39:08;;;;;;;9.52;4.05;;;0.60;41.80;;;;;;5047338;28;20036;-81
2022/03/12 04:41:36;;;;;;;10.55;4.55;;;0.60;42.00;;;;;;5048382;28;20112;-81
2022/03/12 04:44:06;;;;;;;8.07;4.82;;;0.50;42.20;;;;;;5051631;28;20033;-80
2022/03/12 04:46:32;;;;;;;8.90;4.68;;;0.50;42.30;;;;;;5044878;28;20409;-81
2022/03/12 04:48:58;;;;;;;9.65;4.97;;;0.40;43.00;;;;;;5048711;28;20112;-82
2022/03/12 04:51:23;;;;;;;7.40;4.38;;;0.30;43.20;;;;;;5053080;28;20064;-82
2022/03/12 04:53:49;;;;;;;9.15;4.43;;;0.40;42.60;;;;;;5046997;28;20017;-82
2022/03/12 04:56:15;;;;;;;7.57;4.50;;;0.30;43.00;;;;;;5046237;28;20033;-81
2022/03/12 04:58:40;;;;;;;11.13;5.32;;;0.30;43.40;;;;;;5043772;28;20112;-81
2022/03/12 05:01:07;;;;;;;11.43;4.70;;;0.20;43.40;;;;;;5046941;28;20056;-81
2022/03/12 05:03:32;;;;;;;7.43;3.60;;;0.20;43.80;;;;;;5045238;28;20139;-81
2022/03/12 05:06:02;;;;;;;8.45;4.85;;;0.20;43.60;;;;;;5046660;28;20021;-81
2022/03/12 05:08:30;;;;;;;9.40;4.75;;;0.10;44.10;;;;;;5040901;28;20032;-82
2022/03/12 05:10:57;;;;;;;11.25;4.95;;;0.00;44.90;;;;;;5049795;28;20048;-81
2022/03/12 05:13:24;;;;;;;11.73;5.00;;;-3276.70;46.10;;;;;;5051155;28;20388;-82
2022/03/12 05:15:52;;;;;;;8.50;4.32;;;0.00;45.40;;;;;;5050151;28;20480;-81
2022/03/12 05:18:19;;;;;;;10.40;5.35;;;0.00;44.80;;;;;;5041567;28;20057;-80
2022/03/12 05:20:46;;;;;;;9.07;4.50;;;0.00;45.40;;;;;;5051719;28;20053;-80
2022/03/12 05:23:13;;;;;;;11.60;5.15;;;0.00;45.70;;;;;;5055530;28;20040;-80
2022/03/12 05:25:41;;;;;;;12.30;5.03;;;0.00;45.70;;;;;;5047820;28;20439;-80
2022/03/12 05:28:08;;;;;;;11.10;5.32;;;-3276.70;46.00;;;;;;5065318;28;20089;-81
2022/03/12 05:30:34;;;;;;;9.48;4.88;;;-3276.70;45.50;;;;;;5052033;28;20080;-80
2022/03/12 05:33:00;;;;;;;11.32;4.53;;;-3276.60;45.90;;;;;;5053291;28;20060;-81
2022/03/12 05:35:25;;;;;;;12.77;5.05;;;-3276.60;45.90;;;;;;5054934;28;20056;-81
2022/03/12 05:37:52;;;;;;;9.18;5.07;;;-3276.70;45.90;;;;;;5052496;28;20124;-80
2022/03/12 05:40:26;;;;;;;10.07;4.47;;;-3276.70;46.00;;;;;;5048742;28;20037;-80
2022/03/12 05:42:55;;;;;;;8.85;4.55;;;-3276.70;45.90;;;;;;5063369;28;20539;-80
2022/03/12 05:45:22;;;;;;;9.05;4.60;;;0.00;44.90;;;;;;5054921;28;20047;-81
2022/03/12 05:47:49;;;;;;;10.00;4.90;;;0.00;44.70;;;;;;5063144;28;20025;-80
2022/03/12 05:50:15;;;;;;;12.57;5.47;;;0.00;44.50;;;;;;5053844;28;20348;-80
2022/03/12 05:52:47;;;;;;;9.05;4.40;;;0.10;44.10;;;;;;5044642;28;20377;-80
2022/03/12 05:55:14;;;;;;;7.00;3.78;;;0.10;44.20;;;;;;5045394;28;20032;-80
2022/03/12 05:57:40;;;;;;;8.63;4.63;;;0.20;43.70;;;;;;5044701;28;20044;-81
2022/03/12 06:00:11;;;;;;;9.05;4.28;;;0.20;43.50;;;;;;5050317;28;20053;-81
2022/03/12 06:02:52;;;;;;;11.30;4.60;;;0.30;43.60;;;;;;5048307;28;20388;-80
2022/03/12 06:05:18;;;;;;;9.32;4.68;;;0.40;42.40;;;;;;5051377;28;20132;-81
2022/03/12 06:07:46;;;;;;;8.75;4.40;;;0.50;42.60;;;;;;5054561;28;20033;-81
2022/03/12 06:10:21;;;;;;;11.40;5.15;;;0.50;42.40;;;;;;5050757;28;20025;-82
2022/03/12 06:12:48;;;;;;;9.65;4.30;;;0.60;42.00;;;;;;5048517;28;20476;-82
2022/03/12 06:15:17;;;;;;;9.13;4.45;;;0.70;41.70;;;;;;5053378;28;20027;-82
2022/03/12 06:17:47;;;;;;;8.57;4.30;;;0.70;41.80;;;;;;5051632;28;20063;-82
2022/03/12 06:20:14;;;;;;;9.20;4.60;;;0.90;41.30;;;;;;5044802;28;22954;-81
2022/03/12 06:22:40;;;;;;;9.18;4.80;;;0.90;41.30;;;;;;5046112;28;20029;-82
2022/03/12 06:25:08;;;;;;;9.13;3.85;;;0.90;41.00;;;;;;5051122;28;20033;-81
2022/03/12 06:27:34;;;;;;;9.77;4.50;;;1.00;41.00;;;;;;5051561;28;20052;-82
2022/03/12 06:30:04;;;;;;;8.48;4.53;;;1.10;41.00;;;;;;5048879;28;20025;-81
2022/03/12 06:32:31;;;;;;;7.32;3.88;;;1.10;40.80;;;;;;5048341;28;20032;-81
2022/03/12 06:34:57;;;;;;;10.18;4.25;;;1.20;40.50;;;;;;5048647;28;20056;-81
2022/03/12 06:37:23;;;;;;;9.57;4.60;;;1.30;39.90;;;;;;5051218;28;20036;-81
2022/03/12 06:39:49;;;;;;;8.52;4.13;;;1.40;40.10;;;;;;5040998;28;20025;-81
2022/03/12 06:42:14;;;;;;;9.07;4.40;;;1.50;39.20;;;;;;5033848;28;20029;-81
2022/03/12 06:44:41;;;;;;;8.98;4.15;;;1.60;39.40;;;;;;5048685;28;20119;-82
2022/03/12 06:47:08;;;;;;;8.20;4.50;;;1.70;39.40;;;;;;5049421;28;20533;-81
2022/03/12 06:49:34;;;;;;;9.63;4.35;;;1.80;38.70;;;;;;5053801;28;20045;-82
2022/03/12 06:52:00;;;;;;;9.32;4.35;;;1.90;38.10;;;;;;5048741;28;20025;-82
2022/03/12 06:54:25;;;;;;;8.18;4.15;;;2.00;38.30;;;;;;5037436;28;20488;-82
2022/03/12 06:56:51;;;;;;;10.32;3.80;;;2.20;38.00;;;;;;5049065;28;20036;-82
2022/03/12 06:59:17;;;;;;;7.78;4.00;;;2.30;37.70;;;;;;5052437;28;20083;-81
2022/03/12 07:01:42;;;;;;;7.90;3.95;;;2.40;37.50;;;;;;5055605;28;20380;-81
2022/03/12 07:04:08;;;;;;;7.88;3.92;;;2.50;37.30;;;;;;5037414;28;20040;-82
2022/03/12 07:06:34;;;;;;;6.95;3.67;;;2.60;37.00;;;;;;5046902;28;20037;-82
2022/03/12 07:09:00;;;;;;;8.60;3.47;;;2.80;36.90;;;;;;5047886;28;20029;-82
2022/03/12 07:11:26;;;;;;;8.40;3.58;;;3.00;36.30;;;;;;5046954;28;20017;-82
2022/03/12 07:13:51;;;;;;;9.00;4.05;;;3.00;35.50;;;;;;5047116;28;20035;-83
2022/03/12 07:16:17;;;;;;;6.68;3.65;;;3.20;36.30;;;;;;5043031;28;20621;-82
2022/03/12 07:18:42;;;;;;;7.78;3.88;;;3.30;35.20;;;;;;5042225;28;20034;-82
2022/03/12 07:21:08;;;;;;;6.35;3.60;;;3.20;35.10;;;;;;5041296;28;20511;-82
2022/03/12 07:23:34;;;;;;;8.10;3.90;;;3.20;35.40;;;;;;5045588;28;20041;-82
2022/03/12 07:26:00;;;;;;;8.60;3.90;;;3.30;35.90;;;;;;5048625;28;20104;-82
2022/03/12 07:28:27;;;;;;;9.23;3.97;;;3.20;35.80;;;;;;5048976;28;20392;-82
2022/03/12 07:30:53;;;;;;;7.60;3.42;;;3.20;34.70;;;;;;5048791;28;20029;-83
2022/03/12 07:33:19;;;;;;;7.30;3.65;;;3.20;35.40;;;;;;5039597;28;20028;-82
2022/03/12 07:35:45;;;;;;;8.43;3.33;;;3.20;35.90;;;;;;5042561;28;20052;-82
2022/03/12 07:38:10;;;;;;;8.88;4.03;;;3.20;35.50;;;;;;5051255;28;20504;-82
2022/03/12 07:40:36;;;;;;;7.53;4.13;;;3.10;35.90;;;;;;5045182;28;20488;-82
2022/03/12 07:43:01;;;;;;;7.75;3.40;;;3.10;35.60;;;;;;5053169;28;20087;-81
2022/03/12 07:45:27;;;;;;;8.13;3.92;;;3.10;35.40;;;;;;5070060;28;20025;-81
2022/03/12 07:47:52;;;;;;;9.45;3.50;;;3.20;35.50;;;;;;5044044;28;20029;-81
2022/03/12 07:50:19;;;;;;;8.02;4.00;;;3.20;35.70;;;;;;5046612;28;20052;-81
2022/03/12 07:52:45;;;;;;;6.65;3.67;;;3.30;35.90;;;;;;5050714;28;20032;-82
2022/03/12 07:55:12;;;;;;;6.22;3.50;;;3.30;35.90;;;;;;5044425;28;20033;-82
2022/03/12 07:57:40;;;;;;;7.78;3.90;;;3.30;35.70;;;;;;5044939;28;20372;-82
2022/03/12 08:00:08;;;;;;;6.63;3.63;;;3.40;35.50;;;;;;5046390;28;20022;-82
2022/03/12 08:02:34;;;;;;;6.22;3.28;;;3.50;35.80;;;;;;5055248;28;20030;-82
2022/03/12 08:04:59;;;;;;;6.55;3.60;;;3.50;35.40;;;;;;5045856;28;20033;-82
2022/03/12 08:07:26;;;;;;;6.93;3.38;;;3.50;35.70;;;;;;5042943;28;20029;-82
2022/03/12 08:09:56;;;;;;;7.38;3.50;;;3.60;35.80;;;;;;5048182;28;20219;-82
2022/03/12 08:12:24;;;;;;;9.15;3.65;;;3.70;35.80;;;;;;5048272;28;20025;-82
2022/03/12 08:14:50;;;;;;;9.40;3.92;;;3.80;35.30;;;;;;5048809;28;20032;-81
2022/03/12 08:17:17;;;;;;;7.00;3.78;;;3.90;35.00;;;;;;5037666;28;20383;-81
2022/03/12 08:19:43;;;;;;;6.45;3.65;;;4.00;35.00;;;;;;5061661;28;20113;-81
2022/03/12 08:22:09;;;;;;;10.20;3.70;;;4.10;35.10;;;;;;5042585;28;20427;-82
2022/03/12 08:24:34;;;;;;;9.50;3.60;;;4.10;34.60;;;;;;5041317;28;20097;-81
2022/03/12 08:27:00;;;;;;;6.82;3.28;;;4.30;34.60;;;;;;5050161;28;20036;-81
2022/03/12 08:29:25;;;;;;;5.80;3.42;;;4.40;34.20;;;;;;5045002;28;20025;-81
2022/03/12 08:31:51;;;;;;;6.28;2.90;;;4.50;33.80;;;;;;5042483;28;20025;-81
2022/03/12 08:34:16;;;;;;;6.30;3.60;;;4.70;33.70;;;;;;5053229;28;20060;-81
2022/03/12 08:36:42;;;;;;;8.40;3.72;;;4.80;33.70;;;;;;5068525;28;20021;-82
2022/03/12 08:39:09;;;;;;;7.88;3.95;;;5.00;33.90;;;;;;5067537;28;20060;-81
2022/03/12 08:41:34;;;;;;;5.50;3.30;;;5.10;32.10;;;;;;5043372;28;20032;-81
2022/03/12 08:44:00;;;;;;;5.47;3.17;;;5.20;33.30;;;;;;5047004;28;20395;-81
2022/03/12 08:46:26;;;;;;;6.10;3.08;;;5.30;33.00;;;;;;5044292;28;20088;-83
2022/03/12 08:48:51;;;;;;;7.30;2.90;;;5.40;32.40;;;;;;5052987;28;20049;-82
2022/03/12 08:51:17;;;;;;;5.15;2.75;;;5.90;31.60;;;;;;5051403;28;20472;-81
2022/03/12 08:53:43;;;;;;;6.20;2.78;;;6.00;31.00;;;;;;5048725;28;20021;-83
2022/03/12 08:56:08;;;;;;;6.22;3.10;;;6.10;31.20;;;;;;5049721;28;20025;-82
2022/03/12 08:58:34;;;;;;;5.43;3.30;;;6.10;30.80;;;;;;5038963;28;20025;-82
2022/03/12 09:01:02;;;;;;;7.13;3.60;;;6.30;30.40;;;;;;5041049;28;20036;-82
2022/03/12 09:03:30;;;;;;;7.47;3.40;;;6.30;30.70;;;;;;5039720;28;20539;-80
2022/03/12 09:05:56;;;;;;;5.57;3.10;;;6.50;30.10;;;;;;5039397;28;20029;-80
2022/03/12 09:08:21;;;;;;;8.10;2.95;;;6.70;30.40;;;;;;5048222;28;20381;-80
2022/03/12 09:10:47;;;;;;;5.10;2.95;;;6.90;30.30;;;;;;5043453;28;20029;-79
2022/03/12 09:13:15;;;;;;;6.05;3.20;;;6.90;30.70;;;;;;5049460;28;20025;-79
2022/03/12 09:15:42;;;;;;;6.82;3.50;;;7.30;30.20;;;;;;5044266;28;20024;-79
2022/03/12 09:18:09;;;;;;;7.28;3.25;;;7.70;30.20;;;;;;5034210;28;20026;-79
2022/03/12 09:20:37;;;;;;;9.20;3.83;;;7.80;28.90;;;;;;5036855;28;20036;-79
2022/03/12 09:23:03;;;;;;;8.13;4.10;;;8.10;29.40;;;;;;5049681;28;20033;-80
2022/03/12 09:25:28;;;;;;;4.78;2.97;;;8.50;30.10;;;;;;5046334;28;20037;-79
2022/03/12 09:27:54;;;;;;;4.65;2.72;;;8.30;27.70;;;;;;5052380;28;20377;-80
2022/03/12 09:30:19;;;;;;;5.95;3.25;;;8.40;28.60;;;;;;5048790;28;20021;-80
2022/03/12 09:32:45;;;;;;;5.88;3.10;;;8.20;28.30;;;;;;5047501;28;20096;-80
2022/03/12 09:35:11;;;;;;;5.25;2.97;;;8.10;28.70;;;;;;5048128;28;20069;-80
2022/03/12 09:37:37;;;;;;;7.93;3.05;;;7.90;28.40;;;;;;5050848;28;20021;-80
2022/03/12 09:40:04;;;;;;;8.50;3.28;;;8.10;29.90;;;;;;5051213;28;20028;-80
2022/03/12 09:42:30;;;;;;;7.90;3.53;;;8.40;28.30;;;;;;5056216;28;20029;-80
2022/03/12 09:45:00;;;;;;;6.25;3.63;;;8.60;29.00;;;;;;5054401;28;20473;-80
2022/03/12 09:47:25;;;;;;;6.40;3.08;;;9.00;29.00;;;;;;5043621;28;20473;-80
2022/03/12 09:49:52;;;;;;;7.68;3.97;;;9.20;27.00;;;;;;5070166;28;20040;-80
2022/03/12 09:52:17;;;;;;;6.90;3.20;;;9.20;27.60;;;;;;5052499;28;20029;-80
2022/03/12 09:54:44;;;;;;;6.57;3.60;;;9.20;27.70;;;;;;5050070;28;20033;-80
2022/03/12 09:57:09;;;;;;;6.30;3.05;;;9.30;27.00;;;;;;5044144;28;20447;-81
2022/03/12 09:59:35;;;;;;;6.50;3.50;;;9.40;27.80;;;;;;5054761;28;20108;-80
2022/03/12 10:02:01;;;;;;;7.45;3.22;;;9.40;27.20;;;;;;5054656;28;20040;-81
2022/03/12 10:04:27;;;;;;;5.97;3.25;;;9.60;27.50;;;;;;5045438;28;20074;-81
2022/03/12 10:06:53;;;;;;;7.55;3.30;;;9.60;27.10;;;;;;5045226;28;20041;-80
2022/03/12 10:09:19;;;;;;;6.57;3.40;;;9.60;27.30;;;;;;5048956;28;20438;-80
2022/03/12 10:11:45;;;;;;;7.50;3.75;;;9.70;27.20;;;;;;5052191;28;20412;-80
2022/03/12 10:14:11;;;;;;;6.55;3.30;;;9.70;27.40;;;;;;5049776;28;20025;-82
2022/03/12 10:16:37;;;;;;;6.13;3.35;;;10.00;27.20;;;;;;5041729;28;20029;-82
2022/03/12 10:19:03;;;;;;;5.78;3.28;;;10.20;27.30;;;;;;5052438;28;20129;-82
2022/03/12 10:21:30;;;;;;;6.28;3.30;;;10.10;27.90;;;;;;5052495;28;20100;-82
2022/03/12 10:23:56;;;;;;;7.45;3.75;;;10.00;26.90;;;;;;5047287;28;20025;-81
2022/03/12 10:26:21;;;;;;;7.22;3.70;;;10.10;27.70;;;;;;5048842;28;20032;-82
2022/03/12 10:28:47;;;;;;;7.03;3.58;;;10.10;28.60;;;;;;5051111;28;20352;-82
2022/03/12 10:31:15;;;;;;;6.95;3.90;;;10.30;28.10;;;;;;5058786;28;20148;-82
2022/03/12 10:33:41;;;;;;;7.18;3.83;;;10.20;27.20;;;;;;5055226;28;20055;-82
2022/03/12 10:36:10;;;;;;;8.07;4.47;;;10.20;27.40;;;;;;5051786;28;20578;-82
2022/03/12 10:38:48;;;;;;;6.75;3.63;;;10.30;27.20;;;;;;5052441;28;20462;-82
2022/03/12 10:41:15;;;;;;;7.75;3.83;;;10.60;28.00;;;;;;5046185;28;20032;-82
2022/03/12 10:43:51;;;;;;;7.03;4.07;;;10.80;26.90;;;;;;5050666;28;20051;-82
2022/03/12 10:46:22;;;;;;;6.15;3.42;;;10.80;26.90;;;;;;5047468;28;20488;-81
2022/03/12 10:48:54;;;;;;;6.57;3.42;;;10.80;27.10;;;;;;5040285;28;20021;-81
2022/03/12 10:51:19;;;;;;;7.78;3.97;;;11.00;27.30;;;;;;5044434;28;20030;-81
2022/03/12 10:53:45;;;;;;;8.57;4.10;;;11.20;27.00;;;;;;5044764;28;20022;-81
2022/03/12 10:56:11;;;;;;;6.45;3.75;;;11.30;28.00;;;;;;5046173;28;20040;-81
2022/03/12 10:58:37;;;;;;;6.93;4.13;;;11.10;27.30;;;;;;5037898;28;20033;-81
2022/03/12 11:01:03;;;;;;;6.75;3.85;;;11.40;26.60;;;;;;5049418;28;20163;-81
2022/03/12 11:03:31;;;;;;;7.07;3.80;;;11.30;27.60;;;;;;5045939;28;20036;-81
2022/03/12 11:05:58;;;;;;;6.13;3.85;;;11.50;27.20;;;;;;5044206;28;20021;-81
2022/03/12 11:08:28;;;;;;;6.93;3.90;;;11.80;27.60;;;;;;5054602;28;20028;-81
2022/03/12 11:11:12;;;;;;;6.55;3.67;;;12.20;27.60;;;;;;5050006;28;20017;-81
2022/03/12 11:13:49;;;;;;;5.75;3.47;;;12.10;27.10;;;;;;5047867;28;20056;-81
2022/03/12 11:16:24;;;;;;;6.30;3.90;;;12.40;27.50;;;;;;5047427;28;20029;-81
2022/03/12 11:18:52;;;;;;;8.18;4.05;;;12.70;26.90;;;;;;5049892;28;20052;-81
2022/03/12 11:21:37;;;;;;;8.02;4.22;;;12.20;27.00;;;;;;5054119;28;20028;-81
2022/03/12 11:24:13;;;;;;;8.32;3.67;;;12.50;27.90;;;;;;5049223;28;20040;-81
2022/03/12 11:26:46;;;;;;;5.88;3.47;;;12.00;26.90;;;;;;5047336;28;20029;-81
2022/03/12 11:29:12;;;;;;;7.78;4.43;;;12.50;27.80;;;;;;5043631;28;20029;-81
2022/03/12 11:31:40;;;;;;;8.05;3.90;;;12.60;27.30;;;;;;5052396;28;20100;-81
2022/03/12 11:34:22;;;;;;;6.40;4.07;;;12.70;26.50;;;;;;5035359;28;20025;-81
2022/03/12 11:37:12;;;;;;;7.22;3.80;;;12.80;27.70;;;;;;5046143;28;20108;-81
2022/03/12 11:39:41;;;;;;;7.07;4.03;;;13.00;26.50;;;;;;5050099;28;20092;-82
2022/03/12 11:42:11;;;;;;;9.02;4.63;;;13.10;26.50;;;;;;5051898;28;20044;-82
2022/03/12 11:44:41;;;;;;;17.88;4.43;;;12.70;26.60;;;;;;5051045;28;20021;-82
2022/03/12 11:47:07;;;;;;;8.27;4.60;;;13.40;26.50;;;;;;5048782;28;20541;-81
2022/03/12 11:49:33;;;;;;;5.68;3.70;;;13.50;26.10;;;;;;5041768;28;20023;-81
2022/03/12 11:52:00;;;;;;;7.18;4.13;;;13.50;27.20;;;;;;5070115;28;20471;-81
2022/03/12 11:54:26;;;;;;;8.35;4.57;;;13.10;26.20;;;;;;5049221;28;20028;-81
2022/03/12 11:56:52;;;;;;;7.60;4.07;;;12.60;26.50;;;;;;5043478;28;20029;-81
2022/03/12 11:59:18;;;;;;;7.20;3.70;;;13.10;27.00;;;;;;5049792;28;20037;-82
2022/03/12 12:01:56;;;;;;;7.65;4.78;;;13.40;25.80;;;;;;5048420;28;20029;-81
2022/03/12 12:04:22;;;;;;;7.03;4.47;;;13.50;26.60;;;;;;5049486;28;20032;-81
2022/03/12 12:06:49;;;;;;;6.30;3.90;;;13.50;26.50;;;;;;5048234;28;20021;-82
2022/03/12 12:09:16;;;;;;;7.50;4.45;;;13.80;25.90;;;;;;5039522;28;20048;-82
2022/03/12 12:11:42;;;;;;;6.57;3.83;;;14.00;26.60;;;;;;5043630;28;20025;-81
2022/03/12 12:14:07;;;;;;;8.07;3.88;;;14.20;25.80;;;;;;5048823;28;20086;-82
2022/03/12 12:16:33;;;;;;;6.28;3.58;;;14.70;25.90;;;;;;5047526;28;20027;-81
2022/03/12 12:18:59;;;;;;;7.90;3.58;;;14.80;24.90;;;;;;5045424;28;20025;-81
2022/03/12 12:21:25;;;;;;;8.23;3.90;;;14.80;24.40;;;;;;5045147;28;20033;-81
2022/03/12 12:23:51;;;;;;;7.22;4.60;;;14.60;24.80;;;;;;5041743;28;20090;-81
2022/03/12 12:26:17;;;;;;;5.95;3.33;;;14.50;25.50;;;;;;5050264;28;20025;-81
2022/03/12 12:28:48;;;;;;;5.75;3.28;;;15.00;24.30;;;;;;5053191;28;20377;-81
2022/03/12 12:31:19;;;;;;;13.88;6.07;;;14.90;24.50;;;;;;5054719;28;20025;-82
2022/03/12 12:33:45;;;;;;;6.60;3.47;;;14.80;24.20;;;;;;5043834;28;20020;-81
2022/03/12 12:36:18;;;;;;;6.88;3.92;;;14.90;24.20;;;;;;5065181;28;20490;-83
2022/03/12 12:39:06;;;;;;;7.60;3.72;;;15.10;25.30;;;;;;5061156;28;20152;-82
2022/03/12 12:41:56;;;;;;;8.57;4.32;;;15.30;24.10;;;;;;5046668;28;20029;-81
2022/03/12 12:44:43;;;;;;;25.25;13.23;;;15.40;23.80;;;;;;5042133;28;20120;-82
2022/03/12 12:47:17;;;;;;;7.38;4.32;;;15.10;24.40;;;;;;5043908;28;20025;-82
2022/03/12 12:49:50;;;;;;;5.90;3.88;;;15.20;24.50;;;;;;5045608;28;20028;-81
2022/03/12 12:52:15;;;;;;;7.78;4.13;;;15.70;24.50;;;;;;5043779;28;20473;-82
2022/03/12 12:54:56;;;;;;;6.75;3.70;;;15.40;23.30;;;;;;5044741;28;20505;-82
2022/03/12 12:57:40;;;;;;;7.20;3.90;;;15.40;24.60;;;;;;5054187;28;20032;-82